sensor_id;sensor_type;location;lat;lon;timestamp;pressure;altitude;pressure_sealevel;temperature;humidity
42603;BME280;28233;55.748;48.752;2023-06-22T00:00:35;99164.59;;;8.33;81.70
42603;BME280;28233;55.748;48.752;2023-06-22T00:02:38;99165.09;;;8.35;82.00
42603;BME280;28233;55.748;48.752;2023-06-22T00:04:41;99160.91;;;8.38;82.04
42603;BME280;28233;55.748;48.752;2023-06-22T00:06:43;99160.78;;;8.43;81.93
42603;BME280;28233;55.748;48.752;2023-06-22T00:08:46;99160.97;;;8.46;82.09
42603;BME280;28233;55.748;48.752;2023-06-22T00:10:49;99160.97;;;8.46;82.50
42603;BME280;28233;55.748;48.752;2023-06-22T00:12:52;99165.03;;;8.49;82.26
42603;BME280;28233;55.748;48.752;2023-06-22T00:14:55;99169.66;;;8.49;82.75
42603;BME280;28233;55.748;48.752;2023-06-22T00:16:57;99170.00;;;8.47;82.73
42603;BME280;28233;55.748;48.752;2023-06-22T00:19:01;99174.66;;;8.46;82.55
42603;BME280;28233;55.748;48.752;2023-06-22T00:21:05;99174.19;;;8.44;82.73
42603;BME280;28233;55.748;48.752;2023-06-22T00:23:08;99174.66;;;8.46;83.34
42603;BME280;28233;55.748;48.752;2023-06-22T00:25:11;99170.31;;;8.45;83.52
42603;BME280;28233;55.748;48.752;2023-06-22T00:27:14;99179.66;;;8.44;83.99
42603;BME280;28233;55.748;48.752;2023-06-22T00:29:17;99177.00;;;8.39;84.48
42603;BME280;28233;55.748;48.752;2023-06-22T00:31:21;99179.28;;;8.37;84.83
42603;BME280;28233;55.748;48.752;2023-06-22T00:33:23;99178.28;;;8.33;84.97
42603;BME280;28233;55.748;48.752;2023-06-22T00:35:27;99178.59;;;8.32;85.23
42603;BME280;28233;55.748;48.752;2023-06-22T00:37:32;99181.66;;;8.30;85.44
42603;BME280;28233;55.748;48.752;2023-06-22T00:39:35;99181.16;;;8.28;85.63
42603;BME280;28233;55.748;48.752;2023-06-22T00:41:37;99181.97;;;8.29;85.75
42603;BME280;28233;55.748;48.752;2023-06-22T00:43:40;99186.63;;;8.28;85.80
42603;BME280;28233;55.748;48.752;2023-06-22T00:45:44;99189.69;;;8.26;85.75
42603;BME280;28233;55.748;48.752;2023-06-22T00:47:47;99185.94;;;8.22;86.02
42603;BME280;28233;55.748;48.752;2023-06-22T00:49:50;99190.81;;;8.25;86.15
42603;BME280;28233;55.748;48.752;2023-06-22T00:51:53;99193.06;;;8.23;86.17
42603;BME280;28233;55.748;48.752;2023-06-22T00:53:56;99191.91;;;8.24;85.93
42603;BME280;28233;55.748;48.752;2023-06-22T00:56:00;99200.44;;;8.23;86.51
42603;BME280;28233;55.748;48.752;2023-06-22T00:58:08;99188.03;;;8.17;86.23
42603;BME280;28233;55.748;48.752;2023-06-22T01:00:14;99200.13;;;8.24;86.52
42603;BME280;28233;55.748;48.752;2023-06-22T01:02:22;99195.16;;;8.26;86.33
42603;BME280;28233;55.748;48.752;2023-06-22T01:04:34;99194.34;;;8.26;86.56
42603;BME280;28233;55.748;48.752;2023-06-22T01:06:43;99195.16;;;8.26;86.56
42603;BME280;28233;55.748;48.752;2023-06-22T01:09:02;99198.09;;;8.30;86.30
42603;BME280;28233;55.748;48.752;2023-06-22T01:11:41;99195.00;;;8.32;85.96
42603;BME280;28233;55.748;48.752;2023-06-22T01:13:58;99194.06;;;8.36;85.48
42603;BME280;28233;55.748;48.752;2023-06-22T01:16:09;99201.97;;;8.38;85.30
42603;BME280;28233;55.748;48.752;2023-06-22T01:18:17;99203.97;;;8.46;85.01
42603;BME280;28233;55.748;48.752;2023-06-22T01:20:21;99215.25;;;8.53;84.76
42603;BME280;28233;55.748;48.752;2023-06-22T01:22:30;99210.63;;;8.54;84.92
42603;BME280;28233;55.748;48.752;2023-06-22T01:29:12;99206.44;;;8.56;84.05
42603;BME280;28233;55.748;48.752;2023-06-22T01:31:19;99210.81;;;8.66;84.19
42603;BME280;28233;55.748;48.752;2023-06-22T01:33:22;99218.41;;;8.69;84.19
42603;BME280;28233;55.748;48.752;2023-06-22T01:35:26;99206.81;;;8.72;83.98
42603;BME280;28233;55.748;48.752;2023-06-22T01:37:29;99210.03;;;8.74;84.44
42603;BME280;28233;55.748;48.752;2023-06-22T01:39:34;99213.28;;;8.76;84.45
42603;BME280;28233;55.748;48.752;2023-06-22T01:41:39;99217.50;;;8.82;84.35
42603;BME280;28233;55.748;48.752;2023-06-22T01:43:45;99215.09;;;8.89;84.49
42603;BME280;28233;55.748;48.752;2023-06-22T01:45:49;99216.09;;;8.94;84.46
42603;BME280;28233;55.748;48.752;2023-06-22T01:47:52;99215.28;;;9.02;84.20
42603;BME280;28233;55.748;48.752;2023-06-22T01:49:56;99211.59;;;9.06;84.20
42603;BME280;28233;55.748;48.752;2023-06-22T01:51:59;99216.41;;;9.09;84.17
42603;BME280;28233;55.748;48.752;2023-06-22T01:54:02;99215.31;;;9.10;84.71
42603;BME280;28233;55.748;48.752;2023-06-22T01:56:05;99205.31;;;9.06;84.82
42603;BME280;28233;55.748;48.752;2023-06-22T01:58:08;99215.78;;;9.21;84.75
42603;BME280;28233;55.748;48.752;2023-06-22T02:00:19;99213.84;;;9.22;85.26
42603;BME280;28233;55.748;48.752;2023-06-22T02:02:28;99222.91;;;9.31;85.26
42603;BME280;28233;55.748;48.752;2023-06-22T02:04:48;99217.59;;;9.35;85.29
42603;BME280;28233;55.748;48.752;2023-06-22T02:06:55;99222.44;;;9.38;85.37
42603;BME280;28233;55.748;48.752;2023-06-22T02:09:02;99214.03;;;9.43;85.01
42603;BME280;28233;55.748;48.752;2023-06-22T02:11:06;99207.44;;;9.44;84.96
42603;BME280;28233;55.748;48.752;2023-06-22T02:13:11;99216.81;;;9.51;84.63
42603;BME280;28233;55.748;48.752;2023-06-22T02:15:15;99223.41;;;9.59;84.76
42603;BME280;28233;55.748;48.752;2023-06-22T02:17:19;99222.13;;;9.65;83.87
42603;BME280;28233;55.748;48.752;2023-06-22T02:19:25;99227.13;;;9.72;83.59
42603;BME280;28233;55.748;48.752;2023-06-22T02:21:28;99223.44;;;9.77;83.41
42603;BME280;28233;55.748;48.752;2023-06-22T02:23:31;99234.88;;;9.79;83.08
42603;BME280;28233;55.748;48.752;2023-06-22T02:25:37;99224.84;;;9.83;82.77
42603;BME280;28233;55.748;48.752;2023-06-22T02:27:40;99217.78;;;9.82;82.77
42603;BME280;28233;55.748;48.752;2023-06-22T02:29:43;99222.47;;;9.81;82.97
42603;BME280;28233;55.748;48.752;2023-06-22T02:31:46;99216.00;;;9.86;83.14
42603;BME280;28233;55.748;48.752;2023-06-22T02:33:49;99222.78;;;9.88;82.87
42603;BME280;28233;55.748;48.752;2023-06-22T02:35:52;99220.03;;;9.80;82.75
42603;BME280;28233;55.748;48.752;2023-06-22T02:37:55;99227.59;;;9.83;83.37
42603;BME280;28233;55.748;48.752;2023-06-22T02:39:58;99216.66;;;9.74;83.33
42603;BME280;28233;55.748;48.752;2023-06-22T02:42:01;99223.75;;;9.75;83.34
42603;BME280;28233;55.748;48.752;2023-06-22T02:44:04;99224.88;;;9.65;83.89
42603;BME280;28233;55.748;48.752;2023-06-22T02:46:07;99219.22;;;9.62;83.86
42603;BME280;28233;55.748;48.752;2023-06-22T02:48:10;99224.88;;;9.65;83.97
42603;BME280;28233;55.748;48.752;2023-06-22T02:50:13;99220.38;;;9.69;83.73
42603;BME280;28233;55.748;48.752;2023-06-22T02:52:16;99217.75;;;9.73;84.00
42603;BME280;28233;55.748;48.752;2023-06-22T02:54:19;99226.81;;;9.65;84.28
42603;BME280;28233;55.748;48.752;2023-06-22T02:56:23;99243.25;;;9.56;84.43
42603;BME280;28233;55.748;48.752;2023-06-22T02:58:27;99231.16;;;9.48;85.25
42603;BME280;28233;55.748;48.752;2023-06-22T03:00:31;99235.03;;;9.47;85.36
42603;BME280;28233;55.748;48.752;2023-06-22T03:02:33;99228.25;;;9.45;85.28
42603;BME280;28233;55.748;48.752;2023-06-22T03:04:36;99223.59;;;9.45;85.28
42603;BME280;28233;55.748;48.752;2023-06-22T03:06:39;99231.66;;;9.50;85.13
42603;BME280;28233;55.748;48.752;2023-06-22T03:08:43;99227.13;;;9.55;85.30
42603;BME280;28233;55.748;48.752;2023-06-22T03:10:46;99223.41;;;9.59;84.98
42603;BME280;28233;55.748;48.752;2023-06-22T03:12:48;99221.66;;;9.63;84.46
42603;BME280;28233;55.748;48.752;2023-06-22T03:14:51;99226.97;;;9.68;84.19
42603;BME280;28233;55.748;48.752;2023-06-22T03:16:54;99211.00;;;9.70;83.96
42603;BME280;28233;55.748;48.752;2023-06-22T03:18:57;99227.28;;;9.76;83.47
42603;BME280;28233;55.748;48.752;2023-06-22T03:21:00;99216.47;;;9.79;83.47
42603;BME280;28233;55.748;48.752;2023-06-22T03:23:04;99211.31;;;9.78;83.01
42603;BME280;28233;55.748;48.752;2023-06-22T03:25:08;99218.88;;;9.89;83.11
42603;BME280;28233;55.748;48.752;2023-06-22T03:27:16;99223.56;;;9.98;82.62
42603;BME280;28233;55.748;48.752;2023-06-22T03:29:19;99230.50;;;10.04;82.45
42603;BME280;28233;55.748;48.752;2023-06-22T03:31:22;99235.50;;;10.10;82.04
42603;BME280;28233;55.748;48.752;2023-06-22T03:33:25;99231.94;;;10.19;82.24
42603;BME280;28233;55.748;48.752;2023-06-22T03:35:28;99240.97;;;10.28;81.07
42603;BME280;28233;55.748;48.752;2023-06-22T03:37:31;99239.84;;;10.29;81.36
42603;BME280;28233;55.748;48.752;2023-06-22T03:39:34;99237.09;;;10.29;81.23
42603;BME280;28233;55.748;48.752;2023-06-22T03:41:37;99232.91;;;10.31;81.17
42603;BME280;28233;55.748;48.752;2023-06-22T03:43:40;99237.09;;;10.38;80.98
42603;BME280;28233;55.748;48.752;2023-06-22T03:45:43;99243.53;;;10.42;80.82
42603;BME280;28233;55.748;48.752;2023-06-22T03:47:48;99247.09;;;10.42;81.09
42603;BME280;28233;55.748;48.752;2023-06-22T03:49:51;99243.06;;;10.40;80.72
42603;BME280;28233;55.748;48.752;2023-06-22T03:51:57;99241.44;;;10.39;80.65
42603;BME280;28233;55.748;48.752;2023-06-22T03:54:00;99255.97;;;10.39;80.67
42603;BME280;28233;55.748;48.752;2023-06-22T03:56:03;99241.94;;;10.41;80.05
42603;BME280;28233;55.748;48.752;2023-06-22T03:58:06;99245.16;;;10.43;80.27
42603;BME280;28233;55.748;48.752;2023-06-22T04:00:09;99252.72;;;10.46;80.49
42603;BME280;28233;55.748;48.752;2023-06-22T04:02:12;99254.97;;;10.52;80.88
42603;BME280;28233;55.748;48.752;2023-06-22T04:04:17;99248.69;;;10.52;80.50
42603;BME280;28233;55.748;48.752;2023-06-22T04:06:21;99251.44;;;10.52;80.86
42603;BME280;28233;55.748;48.752;2023-06-22T04:08:25;99244.00;;;10.52;80.64
42603;BME280;28233;55.748;48.752;2023-06-22T04:10:27;99255.47;;;10.54;80.08
42603;BME280;28233;55.748;48.752;2023-06-22T04:12:30;99254.31;;;10.55;80.05
42603;BME280;28233;55.748;48.752;2023-06-22T04:14:33;99264.66;;;10.58;79.71
42603;BME280;28233;55.748;48.752;2023-06-22T04:16:36;99267.22;;;10.64;79.70
42603;BME280;28233;55.748;48.752;2023-06-22T04:18:39;99259.47;;;10.66;79.70
42603;BME280;28233;55.748;48.752;2023-06-22T04:20:42;99262.84;;;10.71;80.15
42603;BME280;28233;55.748;48.752;2023-06-22T04:22:49;99262.00;;;10.79;79.98
42603;BME280;28233;55.748;48.752;2023-06-22T04:24:52;99259.56;;;10.87;79.72
42603;BME280;28233;55.748;48.752;2023-06-22T04:26:55;99260.31;;;10.96;79.49
42603;BME280;28233;55.748;48.752;2023-06-22T04:28:58;99250.41;;;11.04;79.18
42603;BME280;28233;55.748;48.752;2023-06-22T04:31:02;99269.22;;;11.23;78.59
42603;BME280;28233;55.748;48.752;2023-06-22T04:33:05;99255.56;;;11.35;78.47
42603;BME280;28233;55.748;48.752;2023-06-22T04:35:08;99267.59;;;11.51;78.08
42603;BME280;28233;55.748;48.752;2023-06-22T04:37:11;99272.38;;;11.63;77.23
42603;BME280;28233;55.748;48.752;2023-06-22T04:39:18;99264.38;;;11.70;75.62
42603;BME280;28233;55.748;48.752;2023-06-22T04:41:21;99260.22;;;11.64;74.35
42603;BME280;28233;55.748;48.752;2023-06-22T04:43:26;99274.72;;;11.73;75.08
42603;BME280;28233;55.748;48.752;2023-06-22T04:45:33;99260.09;;;11.81;75.22
42603;BME280;28233;55.748;48.752;2023-06-22T04:47:35;99260.66;;;11.96;73.89
42603;BME280;28233;55.748;48.752;2023-06-22T04:49:41;99254.00;;;11.97;72.08
42603;BME280;28233;55.748;48.752;2023-06-22T04:51:46;99258.56;;;12.14;71.21
42603;BME280;28233;55.748;48.752;2023-06-22T04:53:49;99260.66;;;12.29;70.29
42603;BME280;28233;55.748;48.752;2023-06-22T04:55:52;99261.06;;;12.40;70.17
42603;BME280;28233;55.748;48.752;2023-06-22T04:57:55;99253.75;;;12.56;69.17
42603;BME280;28233;55.748;48.752;2023-06-22T04:59:59;99262.72;;;12.78;66.91
42603;BME280;28233;55.748;48.752;2023-06-22T05:02:15;99252.75;;;12.85;66.55
42603;BME280;28233;55.748;48.752;2023-06-22T05:04:18;99263.66;;;13.06;65.59
42603;BME280;28233;55.748;48.752;2023-06-22T05:06:22;99256.56;;;13.30;64.18
42603;BME280;28233;55.748;48.752;2023-06-22T05:08:27;99257.34;;;13.55;63.81
42603;BME280;28233;55.748;48.752;2023-06-22T05:10:33;99267.41;;;13.75;63.45
42603;BME280;28233;55.748;48.752;2023-06-22T05:12:36;99270.03;;;13.84;63.24
42603;BME280;28233;55.748;48.752;2023-06-22T05:14:39;99266.69;;;13.91;62.69
42603;BME280;28233;55.748;48.752;2023-06-22T05:16:43;99274.88;;;13.75;61.21
42603;BME280;28233;55.748;48.752;2023-06-22T05:18:46;99277.75;;;13.79;61.71
42603;BME280;28233;55.748;48.752;2023-06-22T05:20:49;99287.84;;;13.87;62.14
42603;BME280;28233;55.748;48.752;2023-06-22T05:22:52;99271.34;;;14.03;62.10
42603;BME280;28233;55.748;48.752;2023-06-22T05:24:55;99280.75;;;14.14;61.19
42603;BME280;28233;55.748;48.752;2023-06-22T05:26:58;99273.13;;;14.23;61.04
42603;BME280;28233;55.748;48.752;2023-06-22T05:29:02;99274.13;;;14.31;60.88
42603;BME280;28233;55.748;48.752;2023-06-22T05:31:05;99270.22;;;14.48;60.17
42603;BME280;28233;55.748;48.752;2023-06-22T05:33:08;99270.38;;;14.67;59.05
42603;BME280;28233;55.748;48.752;2023-06-22T05:35:11;99256.53;;;14.67;58.86
42603;BME280;28233;55.748;48.752;2023-06-22T05:37:14;99268.78;;;14.66;59.00
42603;BME280;28233;55.748;48.752;2023-06-22T05:39:17;99263.72;;;14.84;58.26
42603;BME280;28233;55.748;48.752;2023-06-22T05:41:20;99262.78;;;15.12;57.91
42603;BME280;28233;55.748;48.752;2023-06-22T05:43:22;99264.47;;;15.16;56.87
42603;BME280;28233;55.748;48.752;2023-06-22T05:45:25;99267.69;;;15.02;55.42
42603;BME280;28233;55.748;48.752;2023-06-22T05:47:28;99265.75;;;15.03;54.97
42603;BME280;28233;55.748;48.752;2023-06-22T05:49:31;99265.47;;;15.08;55.48
42603;BME280;28233;55.748;48.752;2023-06-22T05:51:35;99268.25;;;15.08;54.64
42603;BME280;28233;55.748;48.752;2023-06-22T05:53:38;99267.41;;;15.23;55.42
42603;BME280;28233;55.748;48.752;2023-06-22T05:55:41;99272.59;;;15.25;53.51
42603;BME280;28233;55.748;48.752;2023-06-22T05:57:45;99266.44;;;15.16;52.72
42603;BME280;28233;55.748;48.752;2023-06-22T05:59:48;99264.41;;;15.13;53.71
42603;BME280;28233;55.748;48.752;2023-06-22T06:01:51;99269.50;;;15.11;53.49
42603;BME280;28233;55.748;48.752;2023-06-22T06:03:54;99261.38;;;15.18;53.15
42603;BME280;28233;55.748;48.752;2023-06-22T06:05:57;99267.91;;;14.94;51.76
42603;BME280;28233;55.748;48.752;2023-06-22T06:08:01;99277.16;;;14.54;51.67
42603;BME280;28233;55.748;48.752;2023-06-22T06:10:04;99272.47;;;14.42;52.46
42603;BME280;28233;55.748;48.752;2023-06-22T06:12:08;99266.47;;;14.40;53.24
42603;BME280;28233;55.748;48.752;2023-06-22T06:14:11;99270.03;;;14.69;52.90
42603;BME280;28233;55.748;48.752;2023-06-22T06:16:14;99269.47;;;14.79;52.08
42603;BME280;28233;55.748;48.752;2023-06-22T06:18:19;99273.16;;;14.99;50.90
42603;BME280;28233;55.748;48.752;2023-06-22T06:20:25;99266.34;;;14.65;50.30
42603;BME280;28233;55.748;48.752;2023-06-22T06:22:31;99270.28;;;14.64;49.97
42603;BME280;28233;55.748;48.752;2023-06-22T06:24:33;99267.22;;;14.25;51.05
42603;BME280;28233;55.748;48.752;2023-06-22T06:26:36;99270.66;;;14.06;51.37
42603;BME280;28233;55.748;48.752;2023-06-22T06:28:39;99270.19;;;14.04;52.44
42603;BME280;28233;55.748;48.752;2023-06-22T06:30:43;99270.03;;;14.12;52.94
42603;BME280;28233;55.748;48.752;2023-06-22T06:32:46;99274.06;;;14.15;53.82
42603;BME280;28233;55.748;48.752;2023-06-22T06:34:49;99268.78;;;14.10;53.75
42603;BME280;28233;55.748;48.752;2023-06-22T06:36:52;99278.59;;;14.07;51.86
42603;BME280;28233;55.748;48.752;2023-06-22T06:38:55;99285.41;;;13.98;50.79
42603;BME280;28233;55.748;48.752;2023-06-22T06:40:58;99276.38;;;13.72;50.97
42603;BME280;28233;55.748;48.752;2023-06-22T06:43:01;99287.88;;;13.74;51.24
42603;BME280;28233;55.748;48.752;2023-06-22T06:45:05;99274.88;;;13.75;52.09
42603;BME280;28233;55.748;48.752;2023-06-22T06:47:09;99284.66;;;13.72;53.12
42603;BME280;28233;55.748;48.752;2023-06-22T06:49:13;99278.69;;;13.70;53.94
42603;BME280;28233;55.748;48.752;2023-06-22T06:51:16;99276.72;;;13.71;54.71
42603;BME280;28233;55.748;48.752;2023-06-22T06:53:18;99276.50;;;13.76;54.34
42603;BME280;28233;55.748;48.752;2023-06-22T06:55:21;99269.38;;;13.75;55.00
42603;BME280;28233;55.748;48.752;2023-06-22T06:57:28;99269.56;;;13.82;54.37
42603;BME280;28233;55.748;48.752;2023-06-22T06:59:31;99276.00;;;13.86;54.73
42603;BME280;28233;55.748;48.752;2023-06-22T07:01:34;99264.47;;;13.96;54.73
42603;BME280;28233;55.748;48.752;2023-06-22T07:03:38;99260.75;;;14.05;53.61
42603;BME280;28233;55.748;48.752;2023-06-22T07:05:41;99254.56;;;13.95;54.38
42603;BME280;28233;55.748;48.752;2023-06-22T07:07:45;99250.09;;;14.19;54.13
42603;BME280;28233;55.748;48.752;2023-06-22T07:09:48;99246.97;;;14.49;54.04
42603;BME280;28233;55.748;48.752;2023-06-22T07:11:51;99250.13;;;14.79;51.09
42603;BME280;28233;55.748;48.752;2023-06-22T07:13:53;99253.97;;;14.90;48.15
42603;BME280;28233;55.748;48.752;2023-06-22T07:15:56;99245.94;;;15.17;48.91
42603;BME280;28233;55.748;48.752;2023-06-22T07:17:59;99244.81;;;15.37;48.71
42603;BME280;28233;55.748;48.752;2023-06-22T07:20:03;99244.75;;;15.34;48.05
42603;BME280;28233;55.748;48.752;2023-06-22T07:22:11;99251.25;;;15.41;47.85
42603;BME280;28233;55.748;48.752;2023-06-22T07:24:15;99247.22;;;15.39;47.50
42603;BME280;28233;55.748;48.752;2023-06-22T07:26:18;99252.16;;;15.14;46.90
42603;BME280;28233;55.748;48.752;2023-06-22T07:28:21;99255.50;;;14.88;48.45
42603;BME280;28233;55.748;48.752;2023-06-22T07:30:24;99258.97;;;14.85;49.07
42603;BME280;28233;55.748;48.752;2023-06-22T07:32:27;99254.97;;;14.82;49.95
42603;BME280;28233;55.748;48.752;2023-06-22T07:34:31;99261.13;;;14.75;51.06
42603;BME280;28233;55.748;48.752;2023-06-22T07:36:34;99259.50;;;14.58;53.28
42603;BME280;28233;55.748;48.752;2023-06-22T07:38:38;99270.16;;;14.44;54.31
42603;BME280;28233;55.748;48.752;2023-06-22T07:40:41;99268.06;;;14.25;56.95
42603;BME280;28233;55.748;48.752;2023-06-22T07:42:44;99277.09;;;14.10;57.31
42603;BME280;28233;55.748;48.752;2023-06-22T07:44:47;99284.28;;;13.86;57.19
42603;BME280;28233;55.748;48.752;2023-06-22T07:46:50;99292.50;;;13.70;60.32
42603;BME280;28233;55.748;48.752;2023-06-22T07:48:53;99289.88;;;13.62;62.28
42603;BME280;28233;55.748;48.752;2023-06-22T07:50:58;99290.69;;;13.62;66.09
42603;BME280;28233;55.748;48.752;2023-06-22T07:53:00;99284.56;;;13.69;71.62
42603;BME280;28233;55.748;48.752;2023-06-22T07:55:03;99286.97;;;13.70;70.15
42603;BME280;28233;55.748;48.752;2023-06-22T07:57:06;99283.38;;;13.82;70.41
42603;BME280;28233;55.748;48.752;2023-06-22T07:59:09;99277.13;;;13.98;70.24
42603;BME280;28233;55.748;48.752;2023-06-22T08:01:14;99272.66;;;14.21;71.18
42603;BME280;28233;55.748;48.752;2023-06-22T08:03:17;99276.47;;;14.45;70.78
42603;BME280;28233;55.748;48.752;2023-06-22T08:05:20;99287.69;;;14.64;69.86
42603;BME280;28233;55.748;48.752;2023-06-22T08:07:24;99277.72;;;14.91;70.03
42603;BME280;28233;55.748;48.752;2023-06-22T08:09:31;99281.25;;;15.39;71.44
42603;BME280;28233;55.748;48.752;2023-06-22T08:11:34;99272.16;;;15.74;68.97
42603;BME280;28233;55.748;48.752;2023-06-22T08:13:37;99289.03;;;16.04;69.21
42603;BME280;28233;55.748;48.752;2023-06-22T08:15:40;99281.66;;;16.32;65.95
42603;BME280;28233;55.748;48.752;2023-06-22T08:17:44;99286.03;;;16.13;61.27
42603;BME280;28233;55.748;48.752;2023-06-22T08:19:47;99291.44;;;16.06;59.99
42603;BME280;28233;55.748;48.752;2023-06-22T08:21:50;99281.03;;;15.99;59.22
42603;BME280;28233;55.748;48.752;2023-06-22T08:23:53;99285.56;;;15.56;57.87
42603;BME280;28233;55.748;48.752;2023-06-22T08:25:56;99282.31;;;15.35;57.55
42603;BME280;28233;55.748;48.752;2023-06-22T08:27:59;99280.56;;;15.27;59.83
42603;BME280;28233;55.748;48.752;2023-06-22T08:30:02;99284.63;;;15.33;62.59
42603;BME280;28233;55.748;48.752;2023-06-22T08:32:09;99279.16;;;15.17;60.05
42603;BME280;28233;55.748;48.752;2023-06-22T08:34:12;99287.69;;;15.12;59.97
42603;BME280;28233;55.748;48.752;2023-06-22T08:36:18;99274.66;;;15.28;58.04
42603;BME280;28233;55.748;48.752;2023-06-22T08:38:21;99276.50;;;15.40;56.33
42603;BME280;28233;55.748;48.752;2023-06-22T08:40:24;99268.84;;;15.33;55.20
42603;BME280;28233;55.748;48.752;2023-06-22T08:42:27;99261.06;;;15.39;55.48
42603;BME280;28233;55.748;48.752;2023-06-22T08:44:30;99262.28;;;15.57;53.04
42603;BME280;28233;55.748;48.752;2023-06-22T08:46:33;99270.34;;;15.82;52.27
42603;BME280;28233;55.748;48.752;2023-06-22T08:48:36;99271.59;;;15.84;51.37
42603;BME280;28233;55.748;48.752;2023-06-22T08:50:39;99274.81;;;15.87;49.51
42603;BME280;28233;55.748;48.752;2023-06-22T08:52:43;99277.06;;;16.00;48.52
42603;BME280;28233;55.748;48.752;2023-06-22T08:54:46;99267.03;;;16.12;48.54
42603;BME280;28233;55.748;48.752;2023-06-22T08:56:49;99267.66;;;16.24;46.92
42603;BME280;28233;55.748;48.752;2023-06-22T08:58:52;99271.59;;;16.43;48.60
42603;BME280;28233;55.748;48.752;2023-06-22T09:00:57;99268.88;;;16.46;47.43
42603;BME280;28233;55.748;48.752;2023-06-22T09:03:03;99265.97;;;16.39;47.35
42603;BME280;28233;55.748;48.752;2023-06-22T09:05:07;99261.81;;;16.30;47.79
42603;BME280;28233;55.748;48.752;2023-06-22T09:07:10;99265.03;;;16.32;47.64
42603;BME280;28233;55.748;48.752;2023-06-22T09:09:15;99263.53;;;16.57;46.93
42603;BME280;28233;55.748;48.752;2023-06-22T09:11:18;99260.72;;;17.00;46.14
42603;BME280;28233;55.748;48.752;2023-06-22T09:13:21;99252.34;;;17.19;45.39
42603;BME280;28233;55.748;48.752;2023-06-22T09:15:24;99253.28;;;17.30;46.67
42603;BME280;28233;55.748;48.752;2023-06-22T09:17:27;99252.84;;;17.55;45.51
42603;BME280;28233;55.748;48.752;2023-06-22T09:19:30;99245.75;;;17.58;44.35
42603;BME280;28233;55.748;48.752;2023-06-22T09:21:34;99251.25;;;17.54;44.57
42603;BME280;28233;55.748;48.752;2023-06-22T09:23:36;99247.47;;;17.39;44.25
42603;BME280;28233;55.748;48.752;2023-06-22T09:25:39;99243.19;;;17.45;45.08
42603;BME280;28233;55.748;48.752;2023-06-22T09:27:43;99250.47;;;17.27;45.39
42603;BME280;28233;55.748;48.752;2023-06-22T09:29:45;99260.28;;;16.75;47.90
42603;BME280;28233;55.748;48.752;2023-06-22T09:31:48;99255.47;;;16.29;50.75
42603;BME280;28233;55.748;48.752;2023-06-22T09:33:55;99261.63;;;15.64;54.45
42603;BME280;28233;55.748;48.752;2023-06-22T09:35:59;99274.75;;;15.00;58.49
42603;BME280;28233;55.748;48.752;2023-06-22T09:38:01;99277.78;;;14.63;59.90
42603;BME280;28233;55.748;48.752;2023-06-22T09:40:06;99280.59;;;14.23;63.31
42603;BME280;28233;55.748;48.752;2023-06-22T09:42:12;99287.84;;;13.87;66.66
42603;BME280;28233;55.748;48.752;2023-06-22T09:44:16;99280.91;;;13.65;69.19
42603;BME280;28233;55.748;48.752;2023-06-22T09:46:18;99278.25;;;13.56;70.58
42603;BME280;28233;55.748;48.752;2023-06-22T09:48:24;99270.41;;;13.70;72.06
42603;BME280;28233;55.748;48.752;2023-06-22T09:50:27;99270.38;;;13.83;68.10
42603;BME280;28233;55.748;48.752;2023-06-22T09:52:30;99261.47;;;14.02;70.46
42603;BME280;28233;55.748;48.752;2023-06-22T09:54:48;99273.38;;;14.18;68.74
42603;BME280;28233;55.748;48.752;2023-06-22T09:56:51;99267.16;;;14.21;65.58
42603;BME280;28233;55.748;48.752;2023-06-22T09:58:54;99259.25;;;14.07;64.82
42603;BME280;28233;55.748;48.752;2023-06-22T10:01:07;99269.31;;;14.28;64.62
42603;BME280;28233;55.748;48.752;2023-06-22T10:03:10;99269.84;;;14.62;62.95
42603;BME280;28233;55.748;48.752;2023-06-22T10:05:13;99268.06;;;15.01;62.74
42603;BME280;28233;55.748;48.752;2023-06-22T10:07:16;99272.81;;;15.00;60.84
42603;BME280;28233;55.748;48.752;2023-06-22T10:09:19;99272.53;;;14.90;59.80
42603;BME280;28233;55.748;48.752;2023-06-22T10:11:23;99278.88;;;14.90;60.71
42603;BME280;28233;55.748;48.752;2023-06-22T10:13:31;99272.09;;;14.88;61.16
42603;BME280;28233;55.748;48.752;2023-06-22T10:15:34;99280.31;;;14.84;59.19
42603;BME280;28233;55.748;48.752;2023-06-22T10:17:37;99269.47;;;14.79;61.67
42603;BME280;28233;55.748;48.752;2023-06-22T10:19:40;99268.06;;;14.85;59.97
42603;BME280;28233;55.748;48.752;2023-06-22T10:21:44;99268.44;;;14.99;61.15
42603;BME280;28233;55.748;48.752;2023-06-22T10:23:47;99269.50;;;15.11;60.53
42603;BME280;28233;55.748;48.752;2023-06-22T10:25:49;99267.97;;;15.13;59.84
42603;BME280;28233;55.748;48.752;2023-06-22T10:27:52;99267.25;;;15.16;59.02
42603;BME280;28233;55.748;48.752;2023-06-22T10:29:55;99267.06;;;15.25;57.71
42603;BME280;28233;55.748;48.752;2023-06-22T10:31:58;99251.19;;;15.57;58.75
42603;BME280;28233;55.748;48.752;2023-06-22T10:34:00;99256.59;;;16.05;56.26
42603;BME280;28233;55.748;48.752;2023-06-22T10:36:03;99253.47;;;16.49;53.61
42603;BME280;28233;55.748;48.752;2023-06-22T10:38:07;99250.81;;;16.99;52.01
42603;BME280;28233;55.748;48.752;2023-06-22T10:40:14;99250.00;;;17.51;50.20
42603;BME280;28233;55.748;48.752;2023-06-22T10:42:18;99249.69;;;17.83;49.40
42603;BME280;28233;55.748;48.752;2023-06-22T10:44:20;99252.13;;;18.19;48.68
42603;BME280;28233;55.748;48.752;2023-06-22T10:46:26;99242.56;;;18.53;46.80
42603;BME280;28233;55.748;48.752;2023-06-22T10:48:30;99247.34;;;18.94;48.42
42603;BME280;28233;55.748;48.752;2023-06-22T10:50:33;99244.44;;;19.31;44.17
42603;BME280;28233;55.748;48.752;2023-06-22T10:52:36;99246.41;;;19.90;41.98
42603;BME280;28233;55.748;48.752;2023-06-22T10:54:39;99239.38;;;20.39;40.29